sensor_id;sensor_type;location;lat;lon;timestamp;P1;durP1;ratioP1;P2;durP2;ratioP2
39242;SDS011;29823;47.404;8.566;2023-05-23T00:01:13;14.27;;;10.05;;
39242;SDS011;29823;47.404;8.566;2023-05-23T00:03:43;14.48;;;10.35;;
39242;SDS011;29823;47.404;8.566;2023-05-23T00:06:13;18.95;;;10.00;;
39242;SDS011;29823;47.404;8.566;2023-05-23T00:08:42;15.18;;;10.10;;
39242;SDS011;29823;47.404;8.566;2023-05-23T00:11:10;12.63;;;10.35;;
39242;SDS011;29823;47.404;8.566;2023-05-23T00:13:38;15.88;;;11.32;;
39242;SDS011;29823;47.404;8.566;2023-05-23T00:16:07;15.57;;;11.43;;
39242;SDS011;29823;47.404;8.566;2023-05-23T00:18:35;13.63;;;10.48;;
39242;SDS011;29823;47.404;8.566;2023-05-23T00:21:05;17.98;;;11.43;;
39242;SDS011;29823;47.404;8.566;2023-05-23T00:23:33;12.98;;;10.45;;
39242;SDS011;29823;47.404;8.566;2023-05-23T00:26:02;17.60;;;10.90;;
39242;SDS011;29823;47.404;8.566;2023-05-23T00:28:30;15.80;;;11.95;;
39242;SDS011;29823;47.404;8.566;2023-05-23T00:30:58;17.70;;;11.88;;
39242;SDS011;29823;47.404;8.566;2023-05-23T00:33:26;20.60;;;11.70;;
39242;SDS011;29823;47.404;8.566;2023-05-23T00:35:55;16.83;;;12.70;;
39242;SDS011;29823;47.404;8.566;2023-05-23T00:38:23;20.92;;;13.45;;
39242;SDS011;29823;47.404;8.566;2023-05-23T00:40:51;15.85;;;12.90;;
39242;SDS011;29823;47.404;8.566;2023-05-23T00:43:21;20.75;;;13.38;;
39242;SDS011;29823;47.404;8.566;2023-05-23T00:45:49;22.17;;;14.18;;
39242;SDS011;29823;47.404;8.566;2023-05-23T00:48:16;22.48;;;14.35;;
39242;SDS011;29823;47.404;8.566;2023-05-23T00:50:44;17.73;;;13.68;;
39242;SDS011;29823;47.404;8.566;2023-05-23T00:53:12;19.13;;;13.75;;
39242;SDS011;29823;47.404;8.566;2023-05-23T00:55:42;16.33;;;12.85;;
39242;SDS011;29823;47.404;8.566;2023-05-23T00:58:10;18.30;;;13.05;;
39242;SDS011;29823;47.404;8.566;2023-05-23T01:00:41;17.52;;;12.63;;
39242;SDS011;29823;47.404;8.566;2023-05-23T01:03:11;21.47;;;14.33;;
39242;SDS011;29823;47.404;8.566;2023-05-23T01:05:43;17.63;;;13.40;;
39242;SDS011;29823;47.404;8.566;2023-05-23T01:08:11;21.05;;;13.88;;
39242;SDS011;29823;47.404;8.566;2023-05-23T01:10:41;16.77;;;13.10;;
39242;SDS011;29823;47.404;8.566;2023-05-23T01:13:12;20.73;;;13.25;;
39242;SDS011;29823;47.404;8.566;2023-05-23T01:15:51;17.23;;;12.88;;
39242;SDS011;29823;47.404;8.566;2023-05-23T01:18:28;17.20;;;13.23;;
39242;SDS011;29823;47.404;8.566;2023-05-23T01:21:05;17.88;;;12.73;;
39242;SDS011;29823;47.404;8.566;2023-05-23T01:26:39;20.25;;;13.55;;
39242;SDS011;29823;47.404;8.566;2023-05-23T01:29:16;17.50;;;13.27;;
39242;SDS011;29823;47.404;8.566;2023-05-23T01:31:51;20.73;;;12.70;;
39242;SDS011;29823;47.404;8.566;2023-05-23T01:34:21;20.77;;;13.98;;
39242;SDS011;29823;47.404;8.566;2023-05-23T01:36:49;19.05;;;14.00;;
39242;SDS011;29823;47.404;8.566;2023-05-23T01:39:20;20.98;;;14.57;;
39242;SDS011;29823;47.404;8.566;2023-05-23T01:41:49;18.98;;;13.82;;
39242;SDS011;29823;47.404;8.566;2023-05-23T01:44:20;20.08;;;13.82;;
39242;SDS011;29823;47.404;8.566;2023-05-23T01:46:48;20.38;;;14.20;;
39242;SDS011;29823;47.404;8.566;2023-05-23T01:49:16;21.15;;;15.32;;
39242;SDS011;29823;47.404;8.566;2023-05-23T01:51:47;24.15;;;15.68;;
39242;SDS011;29823;47.404;8.566;2023-05-23T01:54:15;21.60;;;15.80;;
39242;SDS011;29823;47.404;8.566;2023-05-23T01:56:45;24.35;;;16.15;;
39242;SDS011;29823;47.404;8.566;2023-05-23T01:59:14;25.48;;;15.63;;
39242;SDS011;29823;47.404;8.566;2023-05-23T02:01:43;23.45;;;15.20;;
39242;SDS011;29823;47.404;8.566;2023-05-23T02:04:12;19.65;;;14.32;;
39242;SDS011;29823;47.404;8.566;2023-05-23T02:06:39;21.13;;;13.88;;
39242;SDS011;29823;47.404;8.566;2023-05-23T02:09:07;19.88;;;13.15;;
39242;SDS011;29823;47.404;8.566;2023-05-23T02:11:35;21.52;;;14.10;;
39242;SDS011;29823;47.404;8.566;2023-05-23T02:14:03;22.65;;;14.77;;
39242;SDS011;29823;47.404;8.566;2023-05-23T02:16:32;22.95;;;13.93;;
39242;SDS011;29823;47.404;8.566;2023-05-23T02:19:03;20.33;;;14.20;;
39242;SDS011;29823;47.404;8.566;2023-05-23T02:21:31;20.05;;;14.77;;
39242;SDS011;29823;47.404;8.566;2023-05-23T02:24:00;19.35;;;13.55;;
39242;SDS011;29823;47.404;8.566;2023-05-23T02:26:28;26.33;;;16.83;;
39242;SDS011;29823;47.404;8.566;2023-05-23T02:28:56;23.98;;;14.70;;
39242;SDS011;29823;47.404;8.566;2023-05-23T02:31:25;21.08;;;15.48;;
39242;SDS011;29823;47.404;8.566;2023-05-23T02:33:53;22.92;;;15.50;;
39242;SDS011;29823;47.404;8.566;2023-05-23T02:36:22;20.50;;;14.85;;
39242;SDS011;29823;47.404;8.566;2023-05-23T02:38:50;20.38;;;15.40;;
39242;SDS011;29823;47.404;8.566;2023-05-23T02:41:18;19.63;;;14.30;;
39242;SDS011;29823;47.404;8.566;2023-05-23T02:43:46;17.50;;;13.95;;
39242;SDS011;29823;47.404;8.566;2023-05-23T02:46:14;20.73;;;14.20;;
39242;SDS011;29823;47.404;8.566;2023-05-23T02:48:42;24.58;;;15.77;;
39242;SDS011;29823;47.404;8.566;2023-05-23T02:51:10;17.98;;;14.45;;
39242;SDS011;29823;47.404;8.566;2023-05-23T02:53:41;18.33;;;14.35;;
39242;SDS011;29823;47.404;8.566;2023-05-23T02:56:08;26.08;;;15.00;;
39242;SDS011;29823;47.404;8.566;2023-05-23T02:58:36;20.70;;;13.98;;
39242;SDS011;29823;47.404;8.566;2023-05-23T03:01:05;17.50;;;14.00;;
39242;SDS011;29823;47.404;8.566;2023-05-23T03:03:33;22.65;;;14.18;;
39242;SDS011;29823;47.404;8.566;2023-05-23T03:06:02;17.17;;;13.23;;
39242;SDS011;29823;47.404;8.566;2023-05-23T03:08:31;17.10;;;14.05;;
39242;SDS011;29823;47.404;8.566;2023-05-23T03:11:01;18.27;;;14.25;;
39242;SDS011;29823;47.404;8.566;2023-05-23T03:13:29;18.42;;;12.82;;
39242;SDS011;29823;47.404;8.566;2023-05-23T03:15:57;18.95;;;14.23;;
39242;SDS011;29823;47.404;8.566;2023-05-23T03:18:25;18.17;;;13.75;;
39242;SDS011;29823;47.404;8.566;2023-05-23T03:20:53;20.88;;;13.57;;
39242;SDS011;29823;47.404;8.566;2023-05-23T03:23:20;20.45;;;13.85;;
39242;SDS011;29823;47.404;8.566;2023-05-23T03:25:48;19.55;;;13.80;;
39242;SDS011;29823;47.404;8.566;2023-05-23T03:28:18;20.60;;;13.27;;
39242;SDS011;29823;47.404;8.566;2023-05-23T03:30:45;17.42;;;12.27;;
39242;SDS011;29823;47.404;8.566;2023-05-23T03:33:13;20.75;;;12.32;;
39242;SDS011;29823;47.404;8.566;2023-05-23T03:35:41;20.80;;;12.98;;
39242;SDS011;29823;47.404;8.566;2023-05-23T03:38:09;18.85;;;13.23;;
39242;SDS011;29823;47.404;8.566;2023-05-23T03:40:37;16.65;;;12.68;;
39242;SDS011;29823;47.404;8.566;2023-05-23T03:43:06;17.38;;;12.75;;
39242;SDS011;29823;47.404;8.566;2023-05-23T03:45:36;18.92;;;12.55;;
39242;SDS011;29823;47.404;8.566;2023-05-23T03:48:04;20.67;;;13.25;;
39242;SDS011;29823;47.404;8.566;2023-05-23T03:50:32;16.30;;;12.48;;
39242;SDS011;29823;47.404;8.566;2023-05-23T03:52:59;17.33;;;12.02;;
39242;SDS011;29823;47.404;8.566;2023-05-23T03:55:27;16.85;;;12.43;;
39242;SDS011;29823;47.404;8.566;2023-05-23T03:57:57;19.05;;;14.05;;
39242;SDS011;29823;47.404;8.566;2023-05-23T04:00:25;19.65;;;13.55;;
39242;SDS011;29823;47.404;8.566;2023-05-23T04:02:55;22.77;;;14.25;;
39242;SDS011;29823;47.404;8.566;2023-05-23T04:05:23;17.85;;;13.02;;
39242;SDS011;29823;47.404;8.566;2023-05-23T04:07:51;23.48;;;12.95;;
39242;SDS011;29823;47.404;8.566;2023-05-23T04:10:19;21.45;;;14.65;;
39242;SDS011;29823;47.404;8.566;2023-05-23T04:12:46;20.83;;;14.02;;
39242;SDS011;29823;47.404;8.566;2023-05-23T04:15:14;18.77;;;12.48;;
39242;SDS011;29823;47.404;8.566;2023-05-23T04:17:43;18.92;;;12.73;;
39242;SDS011;29823;47.404;8.566;2023-05-23T04:20:12;18.88;;;13.57;;
39242;SDS011;29823;47.404;8.566;2023-05-23T04:22:40;20.45;;;13.23;;
39242;SDS011;29823;47.404;8.566;2023-05-23T04:25:08;17.98;;;13.40;;
39242;SDS011;29823;47.404;8.566;2023-05-23T04:27:37;17.48;;;13.02;;
39242;SDS011;29823;47.404;8.566;2023-05-23T04:30:06;18.02;;;13.25;;
39242;SDS011;29823;47.404;8.566;2023-05-23T04:32:35;18.83;;;12.60;;
39242;SDS011;29823;47.404;8.566;2023-05-23T04:35:03;19.50;;;13.05;;
39242;SDS011;29823;47.404;8.566;2023-05-23T04:37:34;20.05;;;12.82;;
39242;SDS011;29823;47.404;8.566;2023-05-23T04:40:03;21.45;;;13.02;;
39242;SDS011;29823;47.404;8.566;2023-05-23T04:42:32;18.58;;;12.48;;
39242;SDS011;29823;47.404;8.566;2023-05-23T04:45:01;18.83;;;12.50;;
39242;SDS011;29823;47.404;8.566;2023-05-23T04:47:29;18.05;;;12.65;;
39242;SDS011;29823;47.404;8.566;2023-05-23T04:50:02;17.75;;;12.65;;
39242;SDS011;29823;47.404;8.566;2023-05-23T04:52:30;18.02;;;13.13;;
39242;SDS011;29823;47.404;8.566;2023-05-23T04:55:01;24.15;;;14.20;;
39242;SDS011;29823;47.404;8.566;2023-05-23T04:57:29;17.65;;;13.20;;
39242;SDS011;29823;47.404;8.566;2023-05-23T04:59:57;19.92;;;13.73;;
39242;SDS011;29823;47.404;8.566;2023-05-23T05:02:26;18.98;;;13.95;;
39242;SDS011;29823;47.404;8.566;2023-05-23T05:04:54;18.35;;;12.65;;
39242;SDS011;29823;47.404;8.566;2023-05-23T05:07:22;17.48;;;12.60;;
39242;SDS011;29823;47.404;8.566;2023-05-23T05:09:50;20.05;;;13.32;;
39242;SDS011;29823;47.404;8.566;2023-05-23T05:12:19;19.33;;;13.30;;
39242;SDS011;29823;47.404;8.566;2023-05-23T05:14:47;21.05;;;12.63;;
39242;SDS011;29823;47.404;8.566;2023-05-23T05:17:15;19.20;;;14.07;;
39242;SDS011;29823;47.404;8.566;2023-05-23T05:19:44;21.52;;;14.15;;
39242;SDS011;29823;47.404;8.566;2023-05-23T05:22:12;25.00;;;14.25;;
39242;SDS011;29823;47.404;8.566;2023-05-23T05:24:40;22.55;;;15.88;;
39242;SDS011;29823;47.404;8.566;2023-05-23T05:27:08;20.85;;;14.27;;
39242;SDS011;29823;47.404;8.566;2023-05-23T05:29:38;18.15;;;13.60;;
39242;SDS011;29823;47.404;8.566;2023-05-23T05:32:06;20.35;;;13.23;;
39242;SDS011;29823;47.404;8.566;2023-05-23T05:34:35;22.17;;;13.60;;
39242;SDS011;29823;47.404;8.566;2023-05-23T05:37:03;19.48;;;13.20;;
39242;SDS011;29823;47.404;8.566;2023-05-23T05:39:31;21.27;;;13.98;;
39242;SDS011;29823;47.404;8.566;2023-05-23T05:41:59;19.70;;;13.13;;
39242;SDS011;29823;47.404;8.566;2023-05-23T05:44:29;16.40;;;12.43;;
39242;SDS011;29823;47.404;8.566;2023-05-23T05:46:58;18.88;;;12.55;;
39242;SDS011;29823;47.404;8.566;2023-05-23T05:49:26;18.88;;;12.32;;
39242;SDS011;29823;47.404;8.566;2023-05-23T05:51:54;17.02;;;12.63;;
39242;SDS011;29823;47.404;8.566;2023-05-23T05:54:22;17.45;;;13.05;;
39242;SDS011;29823;47.404;8.566;2023-05-23T05:56:50;17.38;;;11.60;;
39242;SDS011;29823;47.404;8.566;2023-05-23T05:59:17;20.98;;;12.18;;
39242;SDS011;29823;47.404;8.566;2023-05-23T06:01:45;16.20;;;12.50;;
39242;SDS011;29823;47.404;8.566;2023-05-23T06:04:15;19.00;;;11.40;;
39242;SDS011;29823;47.404;8.566;2023-05-23T06:06:44;19.75;;;11.70;;
39242;SDS011;29823;47.404;8.566;2023-05-23T06:09:12;17.17;;;12.90;;
39242;SDS011;29823;47.404;8.566;2023-05-23T06:11:40;18.38;;;11.40;;
39242;SDS011;29823;47.404;8.566;2023-05-23T06:14:07;18.77;;;12.80;;
39242;SDS011;29823;47.404;8.566;2023-05-23T06:16:36;21.23;;;12.02;;
39242;SDS011;29823;47.404;8.566;2023-05-23T06:19:04;21.33;;;12.13;;
39242;SDS011;29823;47.404;8.566;2023-05-23T06:21:35;19.25;;;11.35;;
39242;SDS011;29823;47.404;8.566;2023-05-23T06:24:03;21.52;;;11.48;;
39242;SDS011;29823;47.404;8.566;2023-05-23T06:26:31;23.00;;;12.18;;
39242;SDS011;29823;47.404;8.566;2023-05-23T06:28:59;17.45;;;10.85;;
39242;SDS011;29823;47.404;8.566;2023-05-23T06:31:26;19.40;;;11.80;;
39242;SDS011;29823;47.404;8.566;2023-05-23T06:33:54;19.58;;;11.55;;
39242;SDS011;29823;47.404;8.566;2023-05-23T06:36:22;25.38;;;13.07;;
39242;SDS011;29823;47.404;8.566;2023-05-23T06:38:51;21.73;;;11.77;;
39242;SDS011;29823;47.404;8.566;2023-05-23T06:41:19;26.23;;;12.65;;
39242;SDS011;29823;47.404;8.566;2023-05-23T06:43:47;23.50;;;12.25;;
39242;SDS011;29823;47.404;8.566;2023-05-23T06:46:15;17.33;;;12.13;;
39242;SDS011;29823;47.404;8.566;2023-05-23T06:48:43;21.27;;;12.40;;
39242;SDS011;29823;47.404;8.566;2023-05-23T06:51:11;20.75;;;13.38;;
39242;SDS011;29823;47.404;8.566;2023-05-23T06:53:39;19.42;;;13.13;;
39242;SDS011;29823;47.404;8.566;2023-05-23T06:56:08;17.13;;;11.93;;
39242;SDS011;29823;47.404;8.566;2023-05-23T06:58:36;21.67;;;11.65;;
39242;SDS011;29823;47.404;8.566;2023-05-23T07:01:04;20.80;;;11.70;;
39242;SDS011;29823;47.404;8.566;2023-05-23T07:03:32;15.68;;;11.75;;
39242;SDS011;29823;47.404;8.566;2023-05-23T07:05:59;16.73;;;12.88;;
39242;SDS011;29823;47.404;8.566;2023-05-23T07:08:27;21.17;;;13.68;;
39242;SDS011;29823;47.404;8.566;2023-05-23T07:10:55;18.20;;;12.93;;
39242;SDS011;29823;47.404;8.566;2023-05-23T07:13:24;18.50;;;12.43;;
39242;SDS011;29823;47.404;8.566;2023-05-23T07:15:52;17.35;;;13.68;;
39242;SDS011;29823;47.404;8.566;2023-05-23T07:18:20;18.80;;;13.48;;
39242;SDS011;29823;47.404;8.566;2023-05-23T07:20:48;18.60;;;13.35;;
39242;SDS011;29823;47.404;8.566;2023-05-23T07:23:16;19.88;;;13.93;;
39242;SDS011;29823;47.404;8.566;2023-05-23T07:25:44;17.77;;;13.32;;
39242;SDS011;29823;47.404;8.566;2023-05-23T07:28:28;23.08;;;14.35;;
39242;SDS011;29823;47.404;8.566;2023-05-23T07:30:56;42.03;;;27.63;;
39242;SDS011;29823;47.404;8.566;2023-05-23T07:33:24;22.05;;;14.80;;
39242;SDS011;29823;47.404;8.566;2023-05-23T07:35:52;16.95;;;12.85;;
39242;SDS011;29823;47.404;8.566;2023-05-23T07:38:20;19.08;;;14.10;;
39242;SDS011;29823;47.404;8.566;2023-05-23T07:40:48;21.50;;;14.57;;
39242;SDS011;29823;47.404;8.566;2023-05-23T07:43:33;23.02;;;14.93;;
39242;SDS011;29823;47.404;8.566;2023-05-23T07:46:01;23.20;;;14.70;;
39242;SDS011;29823;47.404;8.566;2023-05-23T07:48:29;21.05;;;14.50;;
39242;SDS011;29823;47.404;8.566;2023-05-23T07:50:57;19.95;;;13.82;;
39242;SDS011;29823;47.404;8.566;2023-05-23T07:53:25;19.35;;;14.05;;
39242;SDS011;29823;47.404;8.566;2023-05-23T07:55:54;27.25;;;14.25;;
39242;SDS011;29823;47.404;8.566;2023-05-23T07:58:22;17.98;;;13.15;;
39242;SDS011;29823;47.404;8.566;2023-05-23T08:00:51;25.23;;;14.60;;
39242;SDS011;29823;47.404;8.566;2023-05-23T08:03:19;19.38;;;13.75;;
39242;SDS011;29823;47.404;8.566;2023-05-23T08:05:47;21.85;;;15.75;;
39242;SDS011;29823;47.404;8.566;2023-05-23T08:08:16;21.38;;;15.95;;
39242;SDS011;29823;47.404;8.566;2023-05-23T08:10:43;21.38;;;14.90;;
39242;SDS011;29823;47.404;8.566;2023-05-23T08:13:12;22.52;;;15.35;;
39242;SDS011;29823;47.404;8.566;2023-05-23T08:15:40;20.27;;;14.95;;
39242;SDS011;29823;47.404;8.566;2023-05-23T08:18:09;23.85;;;15.68;;
39242;SDS011;29823;47.404;8.566;2023-05-23T08:20:37;33.13;;;20.60;;
39242;SDS011;29823;47.404;8.566;2023-05-23T08:23:06;24.52;;;17.55;;
39242;SDS011;29823;47.404;8.566;2023-05-23T08:25:33;27.75;;;17.30;;
39242;SDS011;29823;47.404;8.566;2023-05-23T08:28:01;23.23;;;16.52;;
39242;SDS011;29823;47.404;8.566;2023-05-23T08:30:29;28.92;;;16.73;;
39242;SDS011;29823;47.404;8.566;2023-05-23T08:32:58;24.52;;;15.68;;
39242;SDS011;29823;47.404;8.566;2023-05-23T08:35:31;24.25;;;17.08;;
39242;SDS011;29823;47.404;8.566;2023-05-23T08:38:04;23.65;;;14.95;;
39242;SDS011;29823;47.404;8.566;2023-05-23T08:40:34;25.63;;;15.07;;
39242;SDS011;29823;47.404;8.566;2023-05-23T08:43:03;19.50;;;14.95;;
39242;SDS011;29823;47.404;8.566;2023-05-23T08:45:31;23.23;;;16.40;;
39242;SDS011;29823;47.404;8.566;2023-05-23T08:48:00;22.63;;;15.40;;
39242;SDS011;29823;47.404;8.566;2023-05-23T08:50:32;22.52;;;16.23;;
39242;SDS011;29823;47.404;8.566;2023-05-23T08:53:02;23.52;;;15.40;;
39242;SDS011;29823;47.404;8.566;2023-05-23T08:55:33;22.73;;;16.05;;
39242;SDS011;29823;47.404;8.566;2023-05-23T08:58:02;21.67;;;15.90;;
39242;SDS011;29823;47.404;8.566;2023-05-23T09:00:30;18.65;;;14.15;;
39242;SDS011;29823;47.404;8.566;2023-05-23T09:03:00;21.00;;;14.82;;
39242;SDS011;29823;47.404;8.566;2023-05-23T09:05:28;20.17;;;15.52;;
39242;SDS011;29823;47.404;8.566;2023-05-23T09:07:58;21.90;;;15.23;;
39242;SDS011;29823;47.404;8.566;2023-05-23T09:10:26;22.35;;;15.40;;
39242;SDS011;29823;47.404;8.566;2023-05-23T09:12:55;21.90;;;15.82;;
39242;SDS011;29823;47.404;8.566;2023-05-23T09:15:24;31.73;;;19.05;;
39242;SDS011;29823;47.404;8.566;2023-05-23T09:17:52;23.27;;;15.75;;
39242;SDS011;29823;47.404;8.566;2023-05-23T09:20:26;25.38;;;17.42;;
39242;SDS011;29823;47.404;8.566;2023-05-23T09:23:07;24.05;;;16.92;;
39242;SDS011;29823;47.404;8.566;2023-05-23T09:25:36;24.05;;;16.05;;
39242;SDS011;29823;47.404;8.566;2023-05-23T09:28:12;22.42;;;15.73;;
39242;SDS011;29823;47.404;8.566;2023-05-23T09:30:40;23.38;;;16.00;;
39242;SDS011;29823;47.404;8.566;2023-05-23T09:33:09;28.60;;;17.00;;
39242;SDS011;29823;47.404;8.566;2023-05-23T09:35:42;27.00;;;15.50;;
39242;SDS011;29823;47.404;8.566;2023-05-23T09:38:13;19.00;;;14.43;;
39242;SDS011;29823;47.404;8.566;2023-05-23T09:40:43;22.02;;;15.57;;
39242;SDS011;29823;47.404;8.566;2023-05-23T09:43:11;23.65;;;15.85;;
39242;SDS011;29823;47.404;8.566;2023-05-23T09:45:43;17.98;;;13.55;;
39242;SDS011;29823;47.404;8.566;2023-05-23T09:48:12;21.92;;;14.18;;
39242;SDS011;29823;47.404;8.566;2023-05-23T09:50:40;20.75;;;14.15;;
39242;SDS011;29823;47.404;8.566;2023-05-23T09:53:08;20.40;;;13.75;;
39242;SDS011;29823;47.404;8.566;2023-05-23T09:55:37;16.08;;;13.35;;
39242;SDS011;29823;47.404;8.566;2023-05-23T09:58:05;18.75;;;14.13;;
39242;SDS011;29823;47.404;8.566;2023-05-23T10:00:35;22.88;;;14.75;;
39242;SDS011;29823;47.404;8.566;2023-05-23T10:03:05;14.98;;;12.73;;
39242;SDS011;29823;47.404;8.566;2023-05-23T10:05:40;19.05;;;12.85;;
39242;SDS011;29823;47.404;8.566;2023-05-23T10:08:12;14.90;;;12.30;;
39242;SDS011;29823;47.404;8.566;2023-05-23T10:11:00;20.17;;;12.93;;
39242;SDS011;29823;47.404;8.566;2023-05-23T10:13:54;15.43;;;11.77;;
39242;SDS011;29823;47.404;8.566;2023-05-23T10:16:26;15.70;;;11.63;;
39242;SDS011;29823;47.404;8.566;2023-05-23T10:18:58;15.02;;;11.13;;
39242;SDS011;29823;47.404;8.566;2023-05-23T10:21:34;16.23;;;11.93;;
39242;SDS011;29823;47.404;8.566;2023-05-23T10:24:10;15.77;;;12.15;;
39242;SDS011;29823;47.404;8.566;2023-05-23T10:26:41;16.92;;;11.73;;
39242;SDS011;29823;47.404;8.566;2023-05-23T10:29:11;15.02;;;11.70;;
39242;SDS011;29823;47.404;8.566;2023-05-23T10:31:39;16.42;;;12.15;;
39242;SDS011;29823;47.404;8.566;2023-05-23T10:34:10;12.77;;;11.02;;
39242;SDS011;29823;47.404;8.566;2023-05-23T10:36:47;14.30;;;11.43;;
39242;SDS011;29823;47.404;8.566;2023-05-23T10:39:29;23.80;;;16.65;;
39242;SDS011;29823;47.404;8.566;2023-05-23T10:42:14;14.05;;;11.23;;
39242;SDS011;29823;47.404;8.566;2023-05-23T10:44:46;14.60;;;10.55;;
39242;SDS011;29823;47.404;8.566;2023-05-23T10:47:15;16.67;;;11.48;;
39242;SDS011;29823;47.404;8.566;2023-05-23T10:49:53;15.85;;;11.93;;
39242;SDS011;29823;47.404;8.566;2023-05-23T10:52:22;12.13;;;10.43;;
39242;SDS011;29823;47.404;8.566;2023-05-23T10:54:53;14.25;;;10.38;;
39242;SDS011;29823;47.404;8.566;2023-05-23T10:57:24;14.93;;;10.80;;
39242;SDS011;29823;47.404;8.566;2023-05-23T10:59:53;17.73;;;12.27;;
39242;SDS011;29823;47.404;8.566;2023-05-23T11:02:24;13.70;;;10.60;;
39242;SDS011;29823;47.404;8.566;2023-05-23T11:07:45;17.58;;;11.30;;
39242;SDS011;29823;47.404;8.566;2023-05-23T11:10:13;12.88;;;10.57;;
39242;SDS011;29823;47.404;8.566;2023-05-23T11:12:43;14.35;;;10.63;;
39242;SDS011;29823;47.404;8.566;2023-05-23T11:15:18;11.88;;;10.02;;
39242;SDS011;29823;47.404;8.566;2023-05-23T11:17:51;13.27;;;10.65;;
39242;SDS011;29823;47.404;8.566;2023-05-23T11:20:20;12.00;;;10.70;;
39242;SDS011;29823;47.404;8.566;2023-05-23T11:22:53;16.15;;;10.90;;
39242;SDS011;29823;47.404;8.566;2023-05-23T11:25:22;12.98;;;10.35;;
39242;SDS011;29823;47.404;8.566;2023-05-23T11:28:08;13.05;;;10.45;;
39242;SDS011;29823;47.404;8.566;2023-05-23T11:30:37;13.60;;;10.32;;
39242;SDS011;29823;47.404;8.566;2023-05-23T11:33:06;17.30;;;12.55;;
39242;SDS011;29823;47.404;8.566;2023-05-23T11:35:39;17.98;;;12.05;;
39242;SDS011;29823;47.404;8.566;2023-05-23T11:38:08;14.45;;;11.35;;
39242;SDS011;29823;47.404;8.566;2023-05-23T11:40:37;14.60;;;11.35;;
39242;SDS011;29823;47.404;8.566;2023-05-23T11:43:09;16.38;;;11.18;;
39242;SDS011;29823;47.404;8.566;2023-05-23T11:45:37;14.93;;;11.55;;
39242;SDS011;29823;47.404;8.566;2023-05-23T11:48:06;15.20;;;11.77;;
39242;SDS011;29823;47.404;8.566;2023-05-23T11:50:42;14.98;;;11.80;;
39242;SDS011;29823;47.404;8.566;2023-05-23T11:53:12;20.73;;;11.57;;
39242;SDS011;29823;47.404;8.566;2023-05-23T11:55:47;16.15;;;12.05;;
39242;SDS011;29823;47.404;8.566;2023-05-23T11:58:20;14.65;;;11.50;;
39242;SDS011;29823;47.404;8.566;2023-05-23T12:00:49;15.48;;;12.55;;
39242;SDS011;29823;47.404;8.566;2023-05-23T12:03:20;13.32;;;11.57;;
39242;SDS011;29823;47.404;8.566;2023-05-23T12:05:48;15.65;;;11.98;;
39242;SDS011;29823;47.404;8.566;2023-05-23T12:08:16;17.08;;;12.57;;
39242;SDS011;29823;47.404;8.566;2023-05-23T12:10:50;22.95;;;13.15;;
39242;SDS011;29823;47.404;8.566;2023-05-23T12:13:20;34.08;;;16.80;;
39242;SDS011;29823;47.404;8.566;2023-05-23T12:15:52;22.60;;;16.75;;
39242;SDS011;29823;47.404;8.566;2023-05-23T12:18:21;30.88;;;18.45;;
39242;SDS011;29823;47.404;8.566;2023-05-23T12:20:49;26.17;;;18.20;;
39242;SDS011;29823;47.404;8.566;2023-05-23T12:23:18;31.90;;;20.02;;
39242;SDS011;29823;47.404;8.566;2023-05-23T12:25:48;30.95;;;20.48;;
39242;SDS011;29823;47.404;8.566;2023-05-23T12:28:19;34.72;;;20.70;;
39242;SDS011;29823;47.404;8.566;2023-05-23T12:30:48;32.63;;;22.25;;
39242;SDS011;29823;47.404;8.566;2023-05-23T12:33:17;36.35;;;23.15;;
39242;SDS011;29823;47.404;8.566;2023-05-23T12:35:46;35.92;;;24.30;;
39242;SDS011;29823;47.404;8.566;2023-05-23T12:38:14;41.03;;;26.50;;
39242;SDS011;29823;47.404;8.566;2023-05-23T12:40:43;39.88;;;24.15;;
39242;SDS011;29823;47.404;8.566;2023-05-23T12:43:11;39.15;;;24.65;;
39242;SDS011;29823;47.404;8.566;2023-05-23T12:45:40;40.78;;;26.08;;
39242;SDS011;29823;47.404;8.566;2023-05-23T12:48:08;37.75;;;25.77;;
39242;SDS011;29823;47.404;8.566;2023-05-23T12:50:39;40.38;;;28.10;;
39242;SDS011;29823;47.404;8.566;2023-05-23T12:53:07;43.33;;;26.00;;
39242;SDS011;29823;47.404;8.566;2023-05-23T12:55:35;36.30;;;24.08;;
39242;SDS011;29823;47.404;8.566;2023-05-23T12:58:03;41.38;;;25.60;;
39242;SDS011;29823;47.404;8.566;2023-05-23T13:00:31;42.67;;;25.55;;
39242;SDS011;29823;47.404;8.566;2023-05-23T13:03:00;33.60;;;23.48;;
39242;SDS011;29823;47.404;8.566;2023-05-23T13:05:28;34.50;;;22.38;;
39242;SDS011;29823;47.404;8.566;2023-05-23T13:07:56;35.53;;;22.35;;
39242;SDS011;29823;47.404;8.566;2023-05-23T13:10:24;33.97;;;23.83;;
39242;SDS011;29823;47.404;8.566;2023-05-23T13:12:55;30.45;;;20.38;;
39242;SDS011;29823;47.404;8.566;2023-05-23T13:15:23;29.77;;;20.05;;
39242;SDS011;29823;47.404;8.566;2023-05-23T13:17:51;28.70;;;19.85;;
39242;SDS011;29823;47.404;8.566;2023-05-23T13:20:21;27.63;;;16.83;;
39242;SDS011;29823;47.404;8.566;2023-05-23T13:22:49;24.45;;;16.52;;
39242;SDS011;29823;47.404;8.566;2023-05-23T13:25:16;29.02;;;17.88;;
39242;SDS011;29823;47.404;8.566;2023-05-23T13:27:44;21.25;;;15.38;;
39242;SDS011;29823;47.404;8.566;2023-05-23T13:30:14;22.27;;;14.40;;
39242;SDS011;29823;47.404;8.566;2023-05-23T13:32:42;15.85;;;11.90;;
39242;SDS011;29823;47.404;8.566;2023-05-23T13:35:10;12.98;;;9.95;;
39242;SDS011;29823;47.404;8.566;2023-05-23T13:37:39;13.55;;;9.05;;
39242;SDS011;29823;47.404;8.566;2023-05-23T13:40:10;15.70;;;8.82;;
39242;SDS011;29823;47.404;8.566;2023-05-23T13:45:07;12.52;;;8.80;;
39242;SDS011;29823;47.404;8.566;2023-05-23T13:47:35;13.25;;;8.20;;
39242;SDS011;29823;47.404;8.566;2023-05-23T13:50:03;13.80;;;7.90;;
39242;SDS011;29823;47.404;8.566;2023-05-23T13:52:32;13.52;;;8.02;;
39242;SDS011;29823;47.404;8.566;2023-05-23T13:55:01;11.25;;;7.60;;
39242;SDS011;29823;47.404;8.566;2023-05-23T13:57:30;13.63;;;8.63;;
39242;SDS011;29823;47.404;8.566;2023-05-23T13:59:57;12.93;;;8.80;;
39242;SDS011;29823;47.404;8.566;2023-05-23T14:02:25;11.18;;;8.93;;
39242;SDS011;29823;47.404;8.566;2023-05-23T14:04:53;13.48;;;9.02;;
39242;SDS011;29823;47.404;8.566;2023-05-23T14:07:21;13.43;;;9.48;;
39242;SDS011;29823;47.404;8.566;2023-05-23T14:09:50;13.02;;;8.82;;
39242;SDS011;29823;47.404;8.566;2023-05-23T14:12:19;14.38;;;8.85;;
39242;SDS011;29823;47.404;8.566;2023-05-23T14:14:47;16.67;;;9.45;;
39242;SDS011;29823;47.404;8.566;2023-05-23T14:17:15;15.05;;;9.43;;
39242;SDS011;29823;47.404;8.566;2023-05-23T14:19:43;13.95;;;9.23;;
39242;SDS011;29823;47.404;8.566;2023-05-23T14:22:12;14.25;;;8.85;;
39242;SDS011;29823;47.404;8.566;2023-05-23T14:24:40;16.55;;;9.48;;
39242;SDS011;29823;47.404;8.566;2023-05-23T14:27:08;11.18;;;8.02;;
39242;SDS011;29823;47.404;8.566;2023-05-23T14:29:38;20.42;;;8.15;;
39242;SDS011;29823;47.404;8.566;2023-05-23T14:32:06;15.10;;;8.27;;
39242;SDS011;29823;47.404;8.566;2023-05-23T14:34:34;10.70;;;7.75;;
39242;SDS011;29823;47.404;8.566;2023-05-23T14:37:02;9.82;;;7.05;;
39242;SDS011;29823;47.404;8.566;2023-05-23T14:39:30;10.77;;;6.60;;
39242;SDS011;29823;47.404;8.566;2023-05-23T14:41:58;9.98;;;6.38;;
39242;SDS011;29823;47.404;8.566;2023-05-23T14:44:26;8.68;;;6.05;;